Time;durP1;ratioP1;P1;durP2;ratioP2;P2;SDS_P1;SDS_P2;PMS_P1;PMS_P2;Temp;Humidity;BMP_temperature;BMP_pressure;BME280_temperature;BME280_humidity;BME280_pressure;Samples;Min_cycle;Max_cycle;Signal;HPM_P1;HPM_P2
2023/11/09 00:01:08;;;;;;;;;;;;;;;7.67;77.02;100542.03;4027008;29;20427;-67
2023/11/09 00:03:10;;;;;;;;;;;;;;;7.66;77.13;100537.66;4027326;29;20026;-67
2023/11/09 00:05:12;;;;;;;;;;;;;;;7.67;76.85;100537.50;4026973;29;20019;-68
2023/11/09 00:07:14;;;;;;;;;;;;;;;7.65;77.03;100530.59;4026590;29;20359;-67
2023/11/09 00:09:16;;;;;;;;;;;;;;;7.64;76.87;100524.38;4026115;29;20026;-71
2023/11/09 00:11:18;;;;;;;;;;;;;;;7.64;76.91;100529.75;4026552;29;20460;-69
2023/11/09 00:13:22;;;;;;;;;;;;;;;7.61;76.87;100524.69;4026135;29;20026;-68
2023/11/09 00:15:25;;;;;;;;;;;;;;;7.61;77.27;100521.19;4026498;29;20590;-68
2023/11/09 00:17:26;;;;;;;;;;;;;;;7.62;77.24;100522.84;4027162;29;19962;-67
2023/11/09 00:19:28;;;;;;;;;;;;;;;7.61;77.35;100523.88;4027108;29;19928;-67
2023/11/09 00:21:30;;;;;;;;;;;;;;;7.61;77.47;100523.88;4025980;29;20426;-68
2023/11/09 00:23:32;;;;;;;;;;;;;;;7.58;77.50;100520.47;4026579;29;20014;-68
2023/11/09 00:25:34;;;;;;;;;;;;;;;7.60;77.35;100522.16;4025988;29;20432;-67
2023/11/09 00:27:37;;;;;;;;;;;;;;;7.57;77.19;100512.59;4026116;29;20066;-69
2023/11/09 00:29:40;;;;;;;;;;;;;;;7.58;77.34;100509.72;4025966;29;20007;-68
2023/11/09 00:31:42;;;;;;;;;;;;;;;7.58;77.53;100508.91;4026191;29;20027;-69
2023/11/09 00:33:44;;;;;;;;;;;;;;;7.58;77.71;100507.03;4026449;29;20014;-68
2023/11/09 00:35:47;;;;;;;;;;;;;;;7.58;77.51;100515.09;4026801;29;20023;-69
2023/11/09 00:37:50;;;;;;;;;;;;;;;7.58;77.54;100503.53;4040821;29;19928;-69
2023/11/09 00:39:52;;;;;;;;;;;;;;;7.58;77.84;100500.84;4026153;29;20030;-69
2023/11/09 00:41:56;;;;;;;;;;;;;;;7.58;77.53;100495.47;4024425;29;20014;-69
2023/11/09 00:43:58;;;;;;;;;;;;;;;7.57;77.70;100491.09;3994198;29;20019;-68
2023/11/09 00:46:02;;;;;;;;;;;;;;;7.56;77.78;100492.09;4026428;29;20019;-68
2023/11/09 00:48:04;;;;;;;;;;;;;;;7.54;77.59;100484.19;4026688;29;20026;-67
2023/11/09 00:50:07;;;;;;;;;;;;;;;7.55;77.49;100488.59;4025518;29;20007;-68
2023/11/09 00:52:09;;;;;;;;;;;;;;;7.55;77.62;100485.91;4025845;29;20026;-67
2023/11/09 00:54:11;;;;;;;;;;;;;;;7.57;77.90;100481.19;4026541;29;20042;-68
2023/11/09 00:56:14;;;;;;;;;;;;;;;7.57;77.90;100485.72;4028978;29;20015;-68
2023/11/09 00:58:16;;;;;;;;;;;;;;;7.56;77.53;100476.81;4029766;29;20032;-70
2023/11/09 01:00:18;;;;;;;;;;;;;;;7.55;77.69;100464.41;4029048;29;20459;-71
2023/11/09 01:02:22;;;;;;;;;;;;;;;7.56;77.83;100463.38;4028157;29;20044;-68
2023/11/09 01:04:24;;;;;;;;;;;;;;;7.55;77.93;100475.16;4029938;29;20043;-68
2023/11/09 01:06:26;;;;;;;;;;;;;;;7.55;77.80;100469.78;4042774;29;20026;-70
2023/11/09 01:08:29;;;;;;;;;;;;;;;7.53;77.78;100465.56;4029076;29;20023;-69
2023/11/09 01:10:31;;;;;;;;;;;;;;;7.53;78.01;100463.69;4028304;29;20022;-68
2023/11/09 01:12:33;;;;;;;;;;;;;;;7.54;78.25;100460.03;4029035;29;20014;-68
2023/11/09 01:14:36;;;;;;;;;;;;;;;7.53;78.22;100454.81;4027916;29;20556;-69
2023/11/09 01:16:38;;;;;;;;;;;;;;;7.53;78.10;100452.13;4026929;29;20397;-68
2023/11/09 01:18:42;;;;;;;;;;;;;;;7.53;78.19;100449.44;4029415;29;19932;-68
2023/11/09 01:20:44;;;;;;;;;;;;;;;7.54;78.21;100449.25;4029611;29;20010;-69
2023/11/09 01:22:47;;;;;;;;;;;;;;;7.53;78.31;100444.06;4029227;29;20601;-69
2023/11/09 01:24:49;;;;;;;;;;;;;;;7.53;78.42;100444.88;4027692;29;20363;-71
2023/11/09 01:26:51;;;;;;;;;;;;;;;7.53;78.22;100439.50;4027801;29;20114;-69
2023/11/09 01:28:53;;;;;;;;;;;;;;;7.53;78.56;100434.13;3998025;29;20518;-67
2023/11/09 01:30:55;;;;;;;;;;;;;;;7.52;78.63;100429.78;4028562;29;20022;-68
2023/11/09 01:32:57;;;;;;;;;;;;;;;7.53;78.53;100428.75;4027562;29;20018;-70
2023/11/09 01:35:00;;;;;;;;;;;;;;;7.56;78.59;100427.59;4027213;29;20031;-70
2023/11/09 01:37:03;;;;;;;;;;;;;;;7.56;78.70;100420.38;4027167;29;20076;-68
2023/11/09 01:39:04;;;;;;;;;;;;;;;7.57;78.40;100418.53;4027837;29;20032;-71
2023/11/09 01:41:07;;;;;;;;;;;;;;;7.56;78.66;100415.00;4028484;29;20462;-68
2023/11/09 01:43:12;;;;;;;;;;;;;;;7.57;78.72;100414.00;4027225;29;20034;-71
2023/11/09 01:45:14;;;;;;;;;;;;;;;7.57;78.57;100407.78;4029195;29;20011;-67
2023/11/09 01:47:16;;;;;;;;;;;;;;;7.60;78.59;100406.59;4028597;29;20011;-68
2023/11/09 01:49:17;;;;;;;;;;;;;;;7.59;78.88;100403.09;4027041;29;20007;-69
2023/11/09 01:51:20;;;;;;;;;;;;;;;7.58;78.91;100410.28;4043195;29;19947;-67
2023/11/09 01:53:23;;;;;;;;;;;;;;;7.59;78.79;100400.41;4028897;29;20014;-67
2023/11/09 01:55:26;;;;;;;;;;;;;;;7.59;78.74;100392.34;4042450;29;20021;-67
2023/11/09 01:57:27;;;;;;;;;;;;;;;7.60;79.09;100388.63;4026992;29;20396;-69
2023/11/09 01:59:30;;;;;;;;;;;;;;;7.61;79.06;100393.00;4028716;29;19993;-69
2023/11/09 02:01:33;;;;;;;;;;;;;;;7.61;78.96;100386.78;4042054;29;20022;-69
2023/11/09 02:03:35;;;;;;;;;;;;;;;7.62;78.97;100388.47;4026817;29;20046;-69
2023/11/09 02:05:37;;;;;;;;;;;;;;;7.62;78.87;100380.38;4026580;29;20035;-68
2023/11/09 02:07:41;;;;;;;;;;;;;;;7.62;79.05;100391.13;4010999;29;20046;-67
2023/11/09 02:09:44;;;;;;;9.15;8.77;;;;;;;7.62;78.78;100381.25;4026682;29;24541;-68
2023/11/09 02:11:46;;;;;;;;;;;;;;;7.64;78.94;100381.91;4027977;29;20296;-67
2023/11/09 02:13:49;;;;;;;9.73;9.30;;;;;;;7.64;79.02;100381.91;3996730;29;20023;-69
2023/11/09 02:15:51;;;;;;;;;;;;;;;7.64;79.11;100376.53;4012292;29;20309;-67
2023/11/09 02:17:54;;;;;;;2.88;2.80;;;;;;;7.64;79.07;100376.53;4041542;29;24561;-68
2023/11/09 02:19:56;;;;;;;;;;;;;;;7.64;79.25;100373.03;4040972;29;20242;-70
2023/11/09 02:21:58;;;;;;;;;;;;;;;7.63;79.33;100374.03;4042511;29;20023;-67
2023/11/09 02:24:02;;;;;;;;;;;;;;;7.64;79.19;100373.84;4027090;29;20533;-71
2023/11/09 02:26:08;;;;;;;15.30;14.30;;;;;;;7.64;79.06;100373.84;4026231;29;20047;-68
2023/11/09 02:28:10;;;;;;;;;;;;;;;7.64;79.08;100362.28;4039089;29;20300;-68
2023/11/09 02:30:13;;;;;;;14.32;13.43;;;;;;;7.64;79.14;100367.66;4025743;29;24528;-67
2023/11/09 02:32:14;;;;;;;;;;;;;;;7.64;79.27;100355.03;4041019;29;20390;-70
2023/11/09 02:34:20;;;;;;;;;;;;;;;7.65;79.03;100358.56;4026131;29;20006;-67
2023/11/09 02:36:22;;;;;;;;;;;;;;;7.65;79.24;100358.56;4027909;29;20031;-68
2023/11/09 02:38:24;;;;;;;;;;;;;;;7.67;79.16;100360.09;4028454;29;20023;-69
2023/11/09 02:40:28;;;;;;;;;;;;;;;7.68;79.06;100355.53;4028040;29;20026;-68
2023/11/09 02:42:30;;;;;;;13.57;12.77;;;;;;;7.66;79.40;100354.88;4027008;29;24558;-68
2023/11/09 02:44:33;;;;;;;;;;;;;;;7.68;79.09;100356.41;4025702;29;20745;-67
2023/11/09 02:46:34;;;;;;;11.68;11.07;;;;;;;7.67;78.90;100346.63;4027059;29;24521;-67
2023/11/09 02:48:37;;;;;;;;;;;;;;;7.67;79.16;100349.31;4027482;29;20292;-68
2023/11/09 02:50:39;;;;;;;13.85;13.00;;;;;;;7.67;78.99;100346.63;4026841;29;24531;-68
2023/11/09 02:52:41;;;;;;;;;;;;;;;7.68;79.04;100345.66;4027913;29;20764;-70
2023/11/09 02:54:45;;;;;;;13.20;12.45;;;;;;;7.68;79.17;100350.16;4026013;29;20864;-69
2023/11/09 02:56:47;;;;;;;;;;;;;;;7.68;79.12;100345.66;4027835;29;20300;-68
2023/11/09 02:58:50;;;;;;;;;;;;;;;7.68;79.02;100342.97;4027924;29;20486;-68
2023/11/09 03:00:52;;;;;;;;;;;;;;;7.68;79.29;100340.25;4027235;29;20402;-69
2023/11/09 03:02:54;;;;;;;;;;;;;;;7.69;79.05;100341.09;4027352;29;20011;-69
2023/11/09 03:04:57;;;;;;;15.07;14.07;;;;;;;7.71;78.91;100334.56;4026517;29;24545;-68
2023/11/09 03:07:00;;;;;;;;;;;;;;;7.71;78.99;100333.69;4027402;29;20743;-68
2023/11/09 03:09:02;;;;;;;11.15;10.60;;;;;;;7.71;79.36;100320.25;3995453;29;24554;-69
2023/11/09 03:11:05;;;;;;;;;;;;;;;7.71;79.27;100323.81;4027285;29;20300;-69
2023/11/09 03:13:07;;;;;;;;;;;;;;;7.72;79.04;100313.88;4025746;29;20014;-69
2023/11/09 03:15:11;;;;;;;;;;;;;;;7.72;79.03;100319.25;4025161;29;20055;-69
2023/11/09 03:17:13;;;;;;;;;;;;;;;7.74;79.07;100317.22;4024503;29;20018;-68
2023/11/09 03:19:15;;;;;;;;;;;;;;;7.72;79.28;100309.34;4026841;29;20374;-68
2023/11/09 03:21:18;;;;;;;;;;;;;;;7.73;78.99;100310.19;4027253;29;19928;-68
2023/11/09 03:23:20;;;;;;;;;;;;;;;7.72;79.34;100305.81;4025907;29;20495;-67
2023/11/09 03:25:22;;;;;;;;;;;;;;;7.72;79.12;100309.34;4027085;29;20026;-68
2023/11/09 03:27:24;;;;;;;;;;;;;;;7.74;79.23;100303.78;4027074;29;20015;-68
2023/11/09 03:29:25;;;;;;;;;;;;;;;7.74;79.27;100293.91;4025965;29;20023;-68
2023/11/09 03:31:29;;;;;;;;;;;;;;;7.75;78.95;100294.72;4027476;29;20450;-69
2023/11/09 03:33:30;;;;;;;;;;;;;;;7.74;78.95;100298.41;4039088;29;19931;-70
2023/11/09 03:35:32;;;;;;;;;;;;;;;7.74;79.17;100288.53;4027090;29;20015;-67
2023/11/09 03:37:35;;;;;;;13.10;12.40;;;;;;;7.75;79.01;100283.97;4026680;29;21576;-68
2023/11/09 03:39:36;;;;;;;;;;;;;;;7.77;79.06;100284.63;4026588;29;20225;-69
2023/11/09 03:41:39;;;;;;;;;;;;;;;7.78;79.02;100272.06;4025228;29;19940;-67
2023/11/09 03:43:41;;;;;;;;;;;;;;;7.78;79.16;100278.25;4025317;29;20018;-67
2023/11/09 03:45:43;;;;;;;;;;;;;;;7.81;79.09;100260.97;4027520;29;20022;-68
2023/11/09 03:47:46;;;;;;;;;;;;;;;7.81;79.09;100272.53;4027087;29;20366;-68
2023/11/09 03:49:48;;;;;;;;;;;;;;;7.83;78.87;100264.31;4027031;29;20015;-68
2023/11/09 03:51:49;;;;;;;;;;;;;;;7.85;78.88;100262.28;4026388;29;20030;-67
2023/11/09 03:53:51;;;;;;;;;;;;;;;7.86;79.02;100264.78;4027028;29;20531;-67
2023/11/09 03:55:52;;;;;;;;;;;;;;;7.87;78.78;100261.09;4027126;29;20007;-68
2023/11/09 03:57:54;;;;;;;;;;;;;;;7.90;78.70;100260.75;4027452;29;19928;-69
2023/11/09 03:59:56;;;;;;;;;;;;;;;7.92;78.78;100247.97;4026983;29;20019;-67
2023/11/09 04:01:58;;;;;;;;;;;;;;;7.93;78.67;100257.72;4040637;29;20437;-68
2023/11/09 04:04:04;;;;;;;;;;;;;;;7.95;78.39;100252.19;4026582;29;20026;-67
2023/11/09 04:06:07;;;;;;;;;;;;;;;7.96;78.64;100250.31;4027002;29;20022;-69
2023/11/09 04:08:09;;;;;;;;;;;;;;;7.99;78.65;100248.13;4027040;29;20027;-69
2023/11/09 04:10:12;;;;;;;;;;;;;;;8.01;78.30;100237.19;4026477;29;20022;-68
2023/11/09 04:12:14;;;;;;;;;;;;;;;8.02;78.39;100231.63;4026473;29;20027;-70
2023/11/09 04:14:17;;;;;;;;;;;;;;;8.03;78.27;100227.94;4026166;29;20010;-68
2023/11/09 04:16:19;;;;;;;;;;;;;;;8.05;78.41;100239.38;4025989;29;20014;-68
2023/11/09 04:18:21;;;;;;;;;;;;;;;8.08;78.21;100233.63;4026772;29;20038;-68
2023/11/09 04:20:24;;;;;;;;;;;;;;;8.10;78.34;100237.00;4026013;29;20011;-68
2023/11/09 04:22:26;;;;;;;;;;;;;;;8.12;77.88;100228.78;4026301;29;19990;-68
2023/11/09 04:24:29;;;;;;;;;;;;;;;8.15;78.21;100224.88;4026403;29;20013;-70
2023/11/09 04:26:32;;;;;;;;;;;;;;;8.16;77.88;100216.63;4026213;29;20011;-68
2023/11/09 04:28:35;;;;;;;;;;;;;;;8.17;78.20;100209.44;4024679;29;20019;-67
2023/11/09 04:30:37;;;;;;;;;;;;;;;8.18;77.65;100206.56;4025383;29;20027;-71
2023/11/09 04:32:39;;;;;;;;;;;;;;;8.22;77.83;100207.03;4026112;29;20019;-68
2023/11/09 04:34:45;;;;;;;;;;;;;;;8.23;77.86;100198.78;4026570;29;20019;-68
2023/11/09 04:36:50;;;;;;;;;;;;;;;8.25;77.46;100191.38;4025869;29;20023;-70
2023/11/09 04:38:53;;;;;;;;;;;;;;;8.28;77.28;100190.19;4025444;29;20023;-68
2023/11/09 04:41:01;;;;;;;;;;;;;;;8.29;77.19;100200.78;4026027;29;20022;-70
2023/11/09 04:43:06;;;;;;;;;;;;;;;8.31;77.42;100192.53;4026199;29;19957;-68
2023/11/09 04:45:11;;;;;;;;;;;;;;;8.34;77.11;100183.25;4026242;29;20482;-69
2023/11/09 04:47:13;;;;;;;;;;;;;;;8.35;77.19;100177.69;4026470;29;20023;-69
2023/11/09 04:49:18;;;;;;;;;;;;;;;8.37;76.91;100177.53;4026724;29;20475;-69
2023/11/09 04:51:29;;;;;;;;;;;;;;;8.38;77.02;100174.66;4025981;29;20010;-68
2023/11/09 04:53:41;;;;;;;15.63;14.48;;;;;;;8.41;76.90;100174.31;4024231;29;24554;-68
2023/11/09 04:55:53;;;;;;;;;;;;;;;8.42;76.76;100164.41;4026584;29;20501;-70
2023/11/09 05:07:13;;;;;;;;;;;;;;;8.50;76.39;100158.16;4026709;29;20020;-68
2023/11/09 05:09:18;;;;;;;;;;;;;;;8.50;76.09;100152.78;4025986;29;20376;-68
2023/11/09 05:11:20;;;;;;;;;;;;;;;8.52;76.17;100156.94;4025851;29;20044;-69
2023/11/09 05:13:21;;;;;;;;;;;;;;;8.53;75.87;100160.50;4026302;29;20102;-68
2023/11/09 05:15:24;;;;;;;15.85;14.73;;;;;;;8.56;76.22;100146.69;4037289;29;24577;-69
2023/11/09 05:17:27;;;;;;;;;;;;;;;8.58;75.88;100145.47;4025778;29;20752;-69
2023/11/09 05:19:30;;;;;;;17.15;15.75;;;;;;;8.58;75.79;100144.66;4024355;29;24561;-68
2023/11/09 05:21:32;;;;;;;;;;;;;;;8.58;75.53;100137.41;4026753;29;20319;-69
2023/11/09 05:23:35;;;;;;;11.57;10.98;;;;;;;8.61;75.74;100136.22;4022481;29;24549;-68
2023/11/09 05:25:41;;;;;;;;;;;;;;;8.61;75.63;100123.59;4025717;29;21491;-69
2023/11/09 05:27:43;;;;;;;15.80;14.70;;;;;;;8.59;75.46;100122.94;4024874;29;24545;-70
2023/11/09 05:29:46;;;;;;;;;;;;;;;8.63;75.46;100124.22;4026035;29;20283;-68
2023/11/09 05:31:50;;;;;;;16.60;15.32;;;;;;;8.60;75.25;100121.91;4025359;29;24529;-68
2023/11/09 05:33:54;;;;;;;;;;;;;;;8.64;75.46;100125.91;4028360;29;20237;-68
2023/11/09 05:35:57;;;;;;;17.70;16.20;;;;;;;8.64;75.31;100119.72;4026207;29;24537;-68
2023/11/09 05:37:59;;;;;;;;;;;;;;;8.64;75.34;100128.59;4027299;29;20618;-68
2023/11/09 05:40:01;;;;;;;17.87;16.37;;;;;;;8.65;75.08;100122.22;4024095;29;24612;-68
2023/11/09 05:42:05;;;;;;;;;;;;;;;8.66;75.02;100126.56;4028860;29;20308;-69
2023/11/09 05:44:08;;;;;;;16.15;14.95;;;;;;;8.71;75.14;100127.88;4026104;29;24886;-69
2023/11/09 05:46:10;;;;;;;20.55;19.20;;;;;;;8.70;74.87;100128.91;4029670;29;20299;-69
2023/11/09 05:48:13;;;;;;;;;;;;;;;8.71;75.07;100136.78;4029024;29;20293;-68
2023/11/09 05:50:15;;;;;;;14.40;13.50;;;;;;;8.68;74.72;100128.25;4028381;29;24541;-68
2023/11/09 05:52:17;;;;;;;;;;;;;;;8.71;74.92;100130.59;4044248;29;20700;-69
2023/11/09 05:54:20;;;;;;;15.40;14.30;;;;;;;8.71;74.77;100128.72;4027603;29;25250;-69
2023/11/09 05:56:24;;;;;;;;;;;;;;;8.71;74.92;100125.19;4030163;29;20796;-69
2023/11/09 05:58:27;;;;;;;14.10;13.23;;;;;;;8.64;75.07;100112.47;4029513;29;25088;-69
2023/11/09 06:00:29;;;;;;;;;;;;;;;8.75;74.80;100130.06;4029632;29;20954;-69
2023/11/09 06:02:30;;;;;;;11.00;10.48;;;;;;;8.76;74.88;100134.44;4028911;29;20023;-69
2023/11/09 06:04:33;;;;;;;;;;;;;;;8.77;74.63;100125.31;4028712;29;20287;-69
2023/11/09 06:06:35;;;;;;;;;;;;;;;8.78;74.76;100123.47;4028848;29;19927;-69
2023/11/09 06:08:37;;;;;;;;;;;;;;;8.80;74.58;100116.03;4028390;29;20011;-69
2023/11/09 06:10:39;;;;;;;;;;;;;;;8.81;74.72;100115.88;4028499;29;20358;-69
2023/11/09 06:12:43;;;;;;;;;;;;;;;8.81;74.15;100115.88;4011728;29;19983;-69
2023/11/09 06:14:46;;;;;;;;;;;;;;;8.82;74.49;100112.16;4027897;29;20411;-69
2023/11/09 06:16:48;;;;;;;;;;;;;;;8.84;74.51;100120.06;4028586;29;20000;-69
2023/11/09 06:18:50;;;;;;;;;;;;;;;8.85;74.17;100116.31;4029310;29;20015;-69
2023/11/09 06:20:57;;;;;;;;;;;;;;;8.86;73.99;100114.50;4028698;29;20030;-69
2023/11/09 06:22:58;;;;;;;;;;;;;;;8.89;73.82;100112.28;4028425;29;19966;-69
2023/11/09 06:25:00;;;;;;;;;;;;;;;8.90;74.23;100102.31;4029474;29;19929;-69
2023/11/09 06:27:02;;;;;;;;;;;;;;;8.90;74.02;100108.53;4030147;29;20398;-69
2023/11/09 06:29:04;;;;;;;;;;;;;;;8.92;73.86;100108.34;4029141;29;20023;-69
2023/11/09 06:31:08;;;;;;;;;;;;;;;8.91;73.89;100112.91;4029741;29;20010;-69
2023/11/09 06:33:09;;;;;;;;;;;;;;;8.92;73.76;100108.34;4029538;29;20386;-69
2023/11/09 06:35:13;;;;;;;;;;;;;;;8.94;73.75;100103.66;4028959;29;19991;-69
2023/11/09 06:37:16;;;;;;;;;;;;;;;8.93;73.81;100091.19;4028013;29;20011;-69
2023/11/09 06:39:19;;;;;;;;;;;;;;;8.93;73.55;100097.41;4029274;29;20023;-69
2023/11/09 06:41:21;;;;;;;;;;;;;;;8.97;73.69;100095.19;4011159;29;19924;-69
2023/11/09 06:43:25;;;;;;;;;;;;;;;8.96;73.59;100088.97;4027897;29;20023;-69
2023/11/09 06:45:27;;;;;;;;;;;;;;;8.95;73.62;100098.06;4011807;29;20023;-69
2023/11/09 06:47:30;;;;;;;;;;;;;;;8.95;73.49;100089.13;4028540;29;20427;-69
2023/11/09 06:49:32;;;;;;;;;;;;;;;8.98;73.26;100088.78;4026759;29;20023;-69
2023/11/09 06:51:35;;;;;;;;;;;;;;;8.99;73.47;100093.16;4040235;29;20014;-69
2023/11/09 06:53:37;;;;;;;;;;;;;;;9.00;73.39;100094.84;4028042;29;20064;-69
2023/11/09 06:55:39;;;;;;;;;;;;;;;9.02;72.99;100099.00;4028690;29;20015;-68
2023/11/09 06:57:41;;;;;;;;;;;;;;;9.02;72.93;100087.41;4028276;29;20111;-68
2023/11/09 06:59:43;;;;;;;;;;;;;;;9.02;73.18;100082.84;4028374;29;20022;-68
2023/11/09 07:01:46;;;;;;;;;;;;;;;9.04;72.98;100089.91;4025122;29;20014;-69
2023/11/09 07:03:51;;;;;;;;;;;;;;;9.04;72.75;100095.31;4026486;29;20025;-69
2023/11/09 07:05:52;;;;;;;;;;;;;;;9.04;73.05;100092.59;4027780;29;20023;-70
2023/11/09 07:07:56;;;;;;;;;;;;;;;9.04;72.87;100088.03;4027867;29;20010;-68
2023/11/09 07:09:58;;;;;;;;;;;;;;;9.05;72.73;100086.22;4028698;29;19988;-69
2023/11/09 07:12:00;;;;;;;;;;;;;;;9.05;72.69;100097.00;4029564;29;20035;-68
2023/11/09 07:14:04;;;;;;;;;;;;;;;9.05;72.60;100094.28;4028078;29;20011;-68
2023/11/09 07:16:07;;;;;;;;;;;;;;;9.07;72.56;100090.38;4027718;29;20043;-68
2023/11/09 07:18:10;;;;;;;;;;;;;;;9.09;72.77;100093.75;4029244;29;20443;-68
2023/11/09 07:20:14;;;;;;;;;;;;;;;9.10;72.42;100097.25;4042825;29;20030;-68
2023/11/09 07:22:16;;;;;;;;;;;;;;;9.12;72.46;100097.91;4028733;29;20030;-68
2023/11/09 07:24:19;;;;;;;;;;;;;;;9.12;72.42;100092.53;4029632;29;20015;-68
2023/11/09 07:26:21;;;;;;;;;;;;;;;9.11;72.18;100102.47;4029245;29;19970;-68
2023/11/09 07:28:24;;;;;;;;;;;;;;;9.12;72.22;100090.69;4027809;29;20446;-68
2023/11/09 07:30:28;;;;;;;;;;;;;;;9.14;72.16;100098.59;4027680;29;20015;-67
2023/11/09 07:32:30;;;;;;;;;;;;;;;9.15;72.17;100092.16;4027252;29;20005;-68
2023/11/09 07:34:32;;;;;;;;;;;;;;;9.16;72.07;100094.66;4026141;29;20022;-68
2023/11/09 07:36:35;;;;;;;;;;;;;;;9.16;71.93;100081.19;4027324;29;20026;-68
2023/11/09 07:38:37;;;;;;;;;;;;;;;9.20;71.66;100087.06;4028315;29;20022;-68
2023/11/09 07:40:39;;;;;;;;;;;;;;;9.19;71.62;100098.84;4028171;29;20031;-67
2023/11/09 07:42:43;;;;;;;;;;;;;;;9.18;71.68;100092.66;4025922;29;20018;-68
2023/11/09 07:44:45;;;;;;;;;;;;;;;9.19;71.68;100088.09;4026077;29;20018;-69
2023/11/09 07:46:48;;;;;;;;;;;;;;;9.17;71.64;100084.75;4025511;29;19983;-69
2023/11/09 07:48:51;;;;;;;;;;;;;;;9.19;71.59;100094.31;4025039;29;20438;-69
2023/11/09 07:50:54;;;;;;;;;;;;;;;9.19;71.54;100088.09;4024963;29;20007;-69
2023/11/09 07:52:57;;;;;;;;;;;;;;;9.22;71.38;100089.59;4026190;29;20027;-69
2023/11/09 07:55:00;;;;;;;;;;;;;;;9.23;71.34;100081.28;4027349;29;20043;-69
2023/11/09 07:57:03;;;;;;;;;;;;;;;9.24;71.24;100079.44;4027349;29;20113;-69
2023/11/09 07:59:05;;;;;;;;;;;;;;;9.24;71.18;100087.53;4027439;29;20479;-69
2023/11/09 08:01:07;;;;;;;;;;;;;;;9.24;71.38;100091.06;4027892;29;20030;-69
2023/11/09 08:03:09;;;;;;;;;;;;;;;9.24;71.14;100071.38;4026899;29;20060;-69
2023/11/09 08:05:13;;;;;;;;;;;;;;;9.26;71.01;100078.22;4026028;29;20031;-69
2023/11/09 08:07:14;;;;;;;;;;;;;;;9.29;71.09;100074.34;4027096;29;20020;-69
2023/11/09 08:09:19;;;;;;;;;;;;;;;9.31;71.16;100069.59;4027421;29;19931;-69
2023/11/09 08:11:21;;;;;;;;;;;;;;;9.30;70.90;100068.75;4040788;29;20023;-69
2023/11/09 08:13:23;;;;;;;;;;;;;;;9.30;71.12;100066.06;4027154;29;20023;-69
2023/11/09 08:15:25;;;;;;;;;;;;;;;9.33;70.96;100076.47;4027303;29;20015;-69
2023/11/09 08:17:27;;;;;;;;;;;;;;;9.33;70.95;100073.78;4026764;29;20011;-69
2023/11/09 08:19:30;;;;;;;;;;;;;;;9.34;70.96;100074.59;4027442;29;20385;-69
2023/11/09 08:21:33;;;;;;;;;;;;;;;9.35;70.81;100073.59;4027933;29;20023;-69
2023/11/09 08:23:36;;;;;;;;;;;;;;;9.38;70.79;100068.66;4027749;29;20024;-69
2023/11/09 08:25:39;;;;;;;;;;;;;;;9.37;70.66;100060.75;4027989;29;20018;-69
2023/11/09 08:27:41;;;;;;;;;;;;;;;9.38;70.77;100067.84;4027053;29;20030;-69
2023/11/09 08:29:43;;;;;;;;;;;;;;;9.40;70.67;100068.47;4028225;29;19935;-69
2023/11/09 08:31:45;;;;;;;;;;;;;;;9.41;70.37;100063.94;4027430;29;20014;-69
2023/11/09 08:33:47;;;;;;;;;;;;;;;9.42;70.58;100054.81;4027366;29;20355;-69
2023/11/09 08:35:51;;;;;;;;;;;;;;;9.44;70.23;100069.78;4027780;29;20430;-69
2023/11/09 08:37:53;;;;;;;;;;;;;;;9.45;69.85;100055.31;4028242;29;20442;-69
2023/11/09 08:39:57;;;;;;;;;;;;;;;9.46;69.90;100045.34;4027246;29;20019;-69
2023/11/09 08:42:00;;;;;;;;;;;;;;;9.48;70.11;100051.38;4027578;29;20506;-69
2023/11/09 08:44:02;;;;;;;;;;;;;;;9.46;70.10;100045.34;4011877;29;20031;-69
2023/11/09 08:46:03;;;;;;;;;;;;;;;9.48;69.74;100040.59;4027544;29;19983;-69
2023/11/09 08:48:07;;;;;;;;;;;;;;;9.51;69.89;100042.91;4026603;29;20044;-69
2023/11/09 08:50:09;;;;;;;;;;;;;;;9.52;69.43;100050.00;4027601;29;20682;-69
2023/11/09 08:52:12;;;;;;;;;;;;;;;9.53;69.34;100043.59;4027385;29;20011;-69
2023/11/09 08:54:16;;;;;;;;;;;;;;;9.53;69.58;100039.03;4026830;29;20014;-69
2023/11/09 08:56:18;;;;;;;;;;;;;;;9.53;69.18;100049.81;4027768;29;20022;-69
2023/11/09 08:58:20;;;;;;;;;;;;;;;9.55;69.51;100038.84;4024974;29;20056;-69
2023/11/09 09:00:23;;;;;;;;;;;;;;;9.55;69.44;100036.97;4010046;29;20030;-69
2023/11/09 09:02:25;;;;;;;;;;;;;;;9.56;69.04;100033.25;4027389;29;20014;-69
2023/11/09 09:04:28;;;;;;;;;;;;;;;9.57;69.37;100043.00;4026289;29;20052;-69
2023/11/09 09:06:31;;;;;;;;;;;;;;;9.59;69.36;100032.03;4027089;29;20015;-69
2023/11/09 09:08:33;;;;;;;;;;;;;;;9.60;68.86;100028.31;4026990;29;20023;-69
2023/11/09 09:10:35;;;;;;;;;;;;;;;9.60;68.92;100025.63;4026532;29;19947;-69
2023/11/09 09:12:37;;;;;;;;;;;;;;;9.62;68.85;100026.25;4026939;29;20023;-69
2023/11/09 09:14:41;;;;;;;;;;;;;;;9.64;69.25;100026.94;4027284;29;20014;-67
2023/11/09 09:16:43;;;;;;;;;;;;;;;9.68;68.92;100021.97;4027430;29;20043;-69
2023/11/09 09:18:47;;;;;;;;;;;;;;;9.69;68.83;100032.59;4028433;29;20683;-68
2023/11/09 09:20:49;;;;;;;;;;;;;;;9.71;68.59;100032.41;4042508;29;20054;-67
2023/11/09 09:22:52;;;;;;;;;;;;;;;9.71;68.52;100040.47;4028462;29;20023;-68
2023/11/09 09:24:55;;;;;;;;;;;;;;;9.74;68.61;100040.94;4028228;29;20031;-68
2023/11/09 09:26:57;;;;;;;;;;;;;;;9.74;68.51;100038.22;4027856;29;20015;-69
2023/11/09 09:28:59;;;;;;;;;;;;;;;9.75;68.77;100041.78;4028502;29;20031;-69
2023/11/09 09:31:03;;;;;;;;;;;;;;;9.77;68.66;100034.34;4028707;29;20015;-68
2023/11/09 09:33:07;;;;;;;;;;;;;;;9.78;68.69;100044.09;4027859;29;20471;-70
2023/11/09 09:35:10;;;;;;;;;;;;;;;9.79;68.46;100032.28;4028299;29;20019;-68
2023/11/09 09:37:14;;;;;;;;;;;;;;;9.80;68.65;100036.66;4028315;29;20015;-67
2023/11/09 09:39:16;;;;;;;;;;;;;;;9.82;68.31;100039.16;4028067;29;20027;-72
2023/11/09 09:41:18;;;;;;;;;;;;;;;9.82;68.12;100025.69;4042105;29;20600;-67
2023/11/09 09:43:22;;;;;;;;;;;;;;;9.83;68.25;100038.16;4028138;29;20031;-68
2023/11/09 09:45:26;;;;;;;;;;;;;;;9.83;68.27;100027.38;4027404;29;20645;-66
2023/11/09 09:47:30;;;;;;;;;;;;;;;9.84;67.70;100027.16;4028214;29;20023;-68
2023/11/09 09:49:32;;;;;;;;;;;;;;;9.85;68.11;100028.81;4027952;29;20391;-67
2023/11/09 09:51:34;;;;;;;;;;;;;;;9.85;67.85;100031.53;4028084;29;20011;-68
2023/11/09 09:53:36;;;;;;;;;;;;;;;9.86;67.89;100032.38;4027723;29;20440;-67
2023/11/09 09:55:40;;;;;;;;;;;;;;;9.86;67.72;100025.13;4028391;29;20007;-70
2023/11/09 09:57:42;;;;;;;;;;;;;;;9.87;67.84;100029.50;4027765;29;20006;-68
2023/11/09 09:59:44;;;;;;;;;;;;;;;9.89;67.98;100023.88;4028265;29;20043;-67
2023/11/09 10:01:47;;;;;;;;;;;;;;;9.90;67.77;100030.94;4027607;29;20372;-68
2023/11/09 10:03:52;;;;;;;;;;;;;;;9.90;67.96;100025.56;4028459;29;20062;-67
2023/11/09 10:05:54;;;;;;;;;;;;;;;9.92;67.59;100039.69;4028892;29;20014;-67
2023/11/09 10:07:59;;;;;;;;;;;;;;;9.92;67.87;100029.75;4027579;29;20026;-68
2023/11/09 10:10:02;;;;;;;;;;;;;;;9.93;67.54;100035.97;4041811;29;20018;-68
2023/11/09 10:12:06;;;;;;;;;;;;;;;9.95;67.67;100033.09;4027690;29;20891;-69
2023/11/09 10:14:11;;;;;;;;;;;;;;;9.95;67.48;100047.41;4027610;29;20011;-69
2023/11/09 10:16:14;;;;;;;;;;;;;;;9.97;67.09;100031.88;4027717;29;20555;-67
2023/11/09 10:18:16;;;;;;;;;;;;;;;9.98;66.81;100048.88;4028019;29;20022;-67
2023/11/09 10:20:18;;;;;;;;;;;;;;;9.98;66.57;100022.75;4026979;29;20022;-70
2023/11/09 10:22:20;;;;;;;;;;;;;;;9.99;66.46;100020.91;4027468;29;20026;-67
2023/11/09 10:24:23;;;;;;;;;;;;;;;9.99;66.47;100019.03;4027325;29;20051;-67
2023/11/09 10:26:35;;;;;;;;;;;;;;;10.01;66.40;100024.22;4028014;29;20014;-67
2023/11/09 10:28:37;;;;;;;;;;;;;;;10.01;66.16;100026.94;4026217;29;20023;-67
2023/11/09 10:30:41;;;;;;;;;;;;;;;10.03;66.32;100027.56;4027130;29;20382;-67
2023/11/09 10:32:44;;;;;;;;;;;;;;;10.04;66.28;100029.25;4026706;29;19930;-69
2023/11/09 10:34:46;;;;;;;;;;;;;;;10.04;66.19;100011.19;4027409;29;20020;-68
2023/11/09 10:36:50;;;;;;;;;;;;;;;10.04;66.21;100021.97;4027748;29;20374;-69
2023/11/09 10:38:52;;;;;;;;;;;;;;;10.06;66.18;100008.28;4027272;29;20022;-68
2023/11/09 10:40:57;;;;;;;;;;;;;;;10.06;66.20;100005.59;4026591;29;20656;-67